Time;durP1;ratioP1;P1;durP2;ratioP2;P2;SDS_P1;SDS_P2;PMS_P1;PMS_P2;Temp;Humidity;BMP_temperature;BMP_pressure;BME280_temperature;BME280_humidity;BME280_pressure;Samples;Min_cycle;Max_cycle;Signal;HPM_P1;HPM_P2
2023/10/01 00:00:38;;;;;;;3.20;2.90;;;;;;;;;;5103457;27;41274;-73
2023/10/01 00:03:06;;;;;;;4.45;2.83;;;;;;;;;;5104673;28;41622;-73
2023/10/01 00:05:34;;;;;;;4.80;3.60;;;;;;;;;;5108854;28;42374;-73
2023/10/01 00:08:02;;;;;;;5.82;3.63;;;;;;;;;;5107760;28;41330;-73
2023/10/01 00:10:30;;;;;;;5.43;4.10;;;;;;;;;;5108267;28;41841;-73
2023/10/01 00:12:58;;;;;;;5.60;4.18;;;;;;;;;;5109025;28;32856;-73
2023/10/01 00:15:27;;;;;;;5.95;3.60;;;;;;;;;;5089071;28;40820;-73
2023/10/01 00:17:56;;;;;;;5.47;3.45;;;;;;;;;;5107583;28;40802;-73
2023/10/01 00:20:25;;;;;;;5.63;3.67;;;;;;;;;;5102534;28;41376;-73
2023/10/01 00:22:56;;;;;;;5.32;3.90;;;;;;;;;;5109301;28;42427;-73
2023/10/01 00:25:26;;;;;;;5.63;3.50;;;;;;;;;;5067891;28;41753;-73
2023/10/01 00:27:55;;;;;;;3.75;3.22;;;;;;;;;;5068539;28;41110;-73
2023/10/01 00:30:23;;;;;;;4.35;3.35;;;;;;;;;;5065668;28;41585;-73
2023/10/01 00:32:51;;;;;;;3.70;3.00;;;;;;;;;;5068880;28;42144;-73
2023/10/01 00:35:20;;;;;;;4.28;3.28;;;;;;;;;;5067300;28;40826;-73
2023/10/01 00:37:48;;;;;;;4.40;3.08;;;;;;;;;;5067928;28;42647;-73
2023/10/01 00:40:17;;;;;;;7.00;3.90;;;;;;;;;;5069085;28;41907;-73
2023/10/01 00:42:46;;;;;;;3.60;3.03;;;;;;;;;;5068320;28;41198;-73
2023/10/01 00:45:14;;;;;;;4.32;3.15;;;;;;;;;;5068678;28;43099;-73
2023/10/01 00:47:42;;;;;;;5.03;4.00;;;;;;;;;;5067725;28;41932;-73
2023/10/01 00:50:12;;;;;;;4.22;3.28;;;;;;;;;;5068809;28;42189;-73
2023/10/01 00:52:41;;;;;;;4.75;3.72;;;;;;;;;;5067273;28;41695;-73
2023/10/01 00:55:11;;;;;;;4.45;3.40;;;;;;;;;;5066589;28;39849;-73
2023/10/01 00:57:39;;;;;;;4.50;3.08;;;;;;;;;;5083569;28;41507;-73
2023/10/01 01:00:13;;;;;;;4.85;3.92;;;;;;;;;;5063760;28;41398;-73
2023/10/01 01:02:46;;;;;;;5.85;4.30;;;;;;;;;;5081136;28;41178;-73
2023/10/01 01:05:23;;;;;;;6.05;4.15;;;;;;;;;;5066995;28;42248;-73
2023/10/01 01:07:54;;;;;;;4.03;3.60;;;;;;;;;;5065896;28;42306;-73
2023/10/01 01:10:26;;;;;;;4.22;3.83;;;;;;;;;;5063200;28;42331;-73
2023/10/01 01:12:54;;;;;;;3.72;2.70;;;;;;;;;;5063255;28;43053;-73
2023/10/01 01:15:22;;;;;;;4.28;3.22;;;;;;;;;;5067553;28;41239;-73
2023/10/01 01:17:51;;;;;;;4.45;3.60;;;;;;;;;;5066062;28;41632;-73
2023/10/01 01:20:19;;;;;;;4.45;3.63;;;;;;;;;;5063903;28;40494;-73
2023/10/01 01:22:52;;;;;;;4.13;3.17;;;;;;;;;;5066452;28;42724;-73
2023/10/01 01:25:21;;;;;;;4.47;3.50;;;;;;;;;;5082539;28;40571;-73
2023/10/01 01:27:50;;;;;;;3.58;3.05;;;;;;;;;;5087292;28;42346;-73
2023/10/01 01:30:19;;;;;;;5.00;3.95;;;;;;;;;;5080534;28;41825;-73
2023/10/01 01:32:49;;;;;;;5.07;4.30;;;;;;;;;;5099174;28;41468;-73
2023/10/01 01:35:27;;;;;;;4.93;4.00;;;;;;;;;;5094808;28;41226;-73
2023/10/01 01:37:58;;;;;;;4.22;3.60;;;;;;;;;;5084255;28;41379;-73
2023/10/01 01:40:31;;;;;;;4.85;3.80;;;;;;;;;;5085342;28;43141;-73
2023/10/01 01:43:15;;;;;;;3.17;2.88;;;;;;;;;;5084883;28;42303;-73
2023/10/01 01:45:45;;;;;;;3.45;3.10;;;;;;;;;;5096129;28;41754;-73
2023/10/01 01:48:26;;;;;;;3.65;3.25;;;;;;;;;;5088002;28;40656;-73
2023/10/01 01:50:54;;;;;;;4.43;3.20;;;;;;;;;;5085920;28;40999;-73
2023/10/01 01:53:26;;;;;;;3.53;3.20;;;;;;;;;;5086334;28;40988;-73
2023/10/01 01:55:55;;;;;;;3.83;3.20;;;;;;;;;;5084468;28;42136;-73
2023/10/01 01:58:25;;;;;;;4.80;3.72;;;;;;;;;;5085440;28;40335;-73
2023/10/01 02:01:08;;;;;;;3.47;3.17;;;;;;;;;;5079257;28;40669;-73
2023/10/01 02:03:37;;;;;;;4.05;3.40;;;;;;;;;;5098039;28;40595;-73
2023/10/01 02:06:08;;;;;;;4.53;3.40;;;;;;;;;;5086237;28;42139;-73
2023/10/01 02:08:48;;;;;;;5.38;3.58;;;;;;;;;;5098387;28;39863;-73
2023/10/01 02:11:16;;;;;;;3.75;2.65;;;;;;;;;;5083621;28;42276;-73
2023/10/01 02:13:45;;;;;;;4.30;3.40;;;;;;;;;;5085196;28;41155;-73
2023/10/01 02:16:34;;;;;;;3.28;2.92;;;;;;;;;;5085300;28;41500;-73
2023/10/01 02:19:14;;;;;;;4.22;3.15;;;;;;;;;;5083830;28;41734;-73
2023/10/01 02:21:43;;;;;;;3.03;2.72;;;;;;;;;;5101533;28;41917;-73
2023/10/01 02:24:14;;;;;;;4.60;3.28;;;;;;;;;;5073181;28;39722;-73
2023/10/01 02:26:42;;;;;;;3.17;2.55;;;;;;;;;;5081892;28;43111;-72
2023/10/01 02:29:12;;;;;;;4.55;3.42;;;;;;;;;;5086560;28;41343;-73
2023/10/01 02:31:46;;;;;;;3.50;2.92;;;;;;;;;;5102522;28;41092;-73
2023/10/01 02:34:14;;;;;;;4.22;3.30;;;;;;;;;;5085747;28;42482;-73
2023/10/01 02:36:43;;;;;;;5.20;3.70;;;;;;;;;;5086818;28;41717;-73
2023/10/01 02:39:19;;;;;;;4.65;3.53;;;;;;;;;;5087101;28;41339;-73
2023/10/01 02:42:09;;;;;;;3.53;2.72;;;;;;;;;;5083986;28;42854;-73
2023/10/01 02:44:38;;;;;;;4.40;3.60;;;;;;;;;;5098690;28;39795;-73
2023/10/01 02:47:16;;;;;;;4.53;3.40;;;;;;;;;;5086612;28;42287;-73
2023/10/01 02:49:49;;;;;;;2.90;2.65;;;;;;;;;;5071225;28;41015;-73
2023/10/01 02:52:17;;;;;;;3.33;2.75;;;;;;;;;;5085781;28;40684;-73
2023/10/01 02:54:47;;;;;;;3.47;2.67;;;;;;;;;;5101601;28;41764;-73
2023/10/01 02:57:24;;;;;;;3.38;3.08;;;;;;;;;;5075834;28;40901;-73
2023/10/01 03:00:30;;;;;;;3.10;2.70;;;;;;;;;;5078404;28;42423;-73
2023/10/01 03:02:59;;;;;;;2.80;2.40;;;;;;;;;;5084842;28;42599;-73
2023/10/01 03:05:28;;;;;;;4.00;2.85;;;;;;;;;;5085431;28;41396;-73
2023/10/01 03:07:58;;;;;;;4.07;2.80;;;;;;;;;;5085467;28;42625;-73
2023/10/01 03:10:25;;;;;;;3.20;2.65;;;;;;;;;;5080954;28;40814;-73
2023/10/01 03:12:57;;;;;;;3.42;3.05;;;;;;;;;;5100625;28;42151;-73
2023/10/01 03:15:27;;;;;;;3.53;3.20;;;;;;;;;;5079676;28;43131;-73
2023/10/01 03:18:06;;;;;;;5.43;2.80;;;;;;;;;;5105261;28;40072;-73
2023/10/01 03:23:25;;;;;;;3.85;3.40;;;;;;;;;;5086984;28;41915;-73
2023/10/01 03:25:58;;;;;;;3.25;2.72;;;;;;;;;;5105856;28;42321;-73
2023/10/01 03:28:31;;;;;;;3.28;2.85;;;;;;;;;;5107262;28;41713;-73
2023/10/01 03:31:06;;;;;;;3.15;2.45;;;;;;;;;;5089421;28;41185;-73
2023/10/01 03:33:37;;;;;;;3.13;2.78;;;;;;;;;;5107750;28;40910;-73
2023/10/01 03:36:09;;;;;;;2.55;2.28;;;;;;;;;;5107442;28;43161;-73
2023/10/01 03:38:37;;;;;;;4.95;3.45;;;;;;;;;;5106225;28;41279;-73
2023/10/01 03:41:08;;;;;;;3.42;2.85;;;;;;;;;;5099166;28;41720;-73
2023/10/01 03:43:37;;;;;;;3.53;2.28;;;;;;;;;;5106961;28;42193;-73
2023/10/01 03:46:13;;;;;;;4.30;3.45;;;;;;;;;;5100647;28;41219;-73
2023/10/01 03:49:03;;;;;;;3.22;2.92;;;;;;;;;;5107188;28;42589;-73
2023/10/01 03:54:19;;;;;;;4.68;2.90;;;;;;;;;;5107115;28;40896;-73
2023/10/01 03:56:56;;;;;;;3.60;2.75;;;;;;;;;;5104873;28;41233;-73
2023/10/01 03:59:27;;;;;;;3.30;3.00;;;;;;;;;;5107778;28;42479;-73
2023/10/01 04:02:02;;;;;;;3.90;3.17;;;;;;;;;;5110002;28;41778;-73
2023/10/01 04:04:56;;;;;;;3.00;2.47;;;;;;;;;;5106489;28;43358;-73
2023/10/01 04:07:26;;;;;;;3.08;2.63;;;;;;;;;;5106726;28;41104;-73
2023/10/01 04:09:54;;;;;;;5.32;3.50;;;;;;;;;;5109258;28;42346;-73
2023/10/01 04:12:32;;;;;;;3.65;3.17;;;;;;;;;;5108762;28;42239;-73
2023/10/01 04:15:04;;;;;;;2.72;2.47;;;;;;;;;;5102085;28;40724;-73
2023/10/01 04:17:36;;;;;;;2.92;1.95;;;;;;;;;;5107876;28;41288;-73
2023/10/01 04:20:12;;;;;;;3.20;2.75;;;;;;;;;;5105975;28;41702;-73
2023/10/01 04:22:41;;;;;;;2.55;2.20;;;;;;;;;;5101276;28;41596;-73
2023/10/01 04:25:11;;;;;;;4.05;2.90;;;;;;;;;;5108794;28;42054;-73
2023/10/01 04:27:42;;;;;;;2.38;2.03;;;;;;;;;;5105270;28;42048;-73
2023/10/01 04:30:12;;;;;;;3.30;2.63;;;;;;;;;;5105989;28;41396;-72
2023/10/01 04:32:40;;;;;;;3.20;2.80;;;;;;;;;;5107847;28;42745;-73
2023/10/01 04:35:14;;;;;;;2.72;2.10;;;;;;;;;;5109145;28;41000;-73
2023/10/01 04:37:48;;;;;;;3.80;2.67;;;;;;;;;;5097423;28;41396;-73
2023/10/01 04:40:39;;;;;;;2.80;2.42;;;;;;;;;;5104996;28;41760;-73
2023/10/01 04:43:10;;;;;;;4.30;2.80;;;;;;;;;;5100630;28;42433;-73
2023/10/01 04:45:41;;;;;;;4.85;3.67;;;;;;;;;;5108289;28;41679;-73
2023/10/01 04:48:15;;;;;;;3.78;2.97;;;;;;;;;;5106355;27;40382;-73
2023/10/01 04:50:44;;;;;;;4.50;2.40;;;;;;;;;;5105590;28;42645;-73
2023/10/01 04:53:13;;;;;;;2.10;1.88;;;;;;;;;;5109379;28;42191;-73
2023/10/01 04:55:44;;;;;;;2.75;2.20;;;;;;;;;;5108631;28;42314;-73
2023/10/01 04:58:14;;;;;;;3.17;2.33;;;;;;;;;;5109326;28;41176;-73
2023/10/01 05:00:45;;;;;;;3.30;2.75;;;;;;;;;;5090612;28;41310;-73
2023/10/01 05:03:15;;;;;;;3.10;2.22;;;;;;;;;;5106380;28;41252;-73
2023/10/01 05:05:44;;;;;;;4.38;3.08;;;;;;;;;;5108288;28;41940;-73
2023/10/01 05:08:13;;;;;;;2.80;2.40;;;;;;;;;;5107162;28;40651;-73
2023/10/01 05:10:56;;;;;;;3.30;2.85;;;;;;;;;;5101527;28;41704;-73
2023/10/01 05:13:24;;;;;;;3.05;2.33;;;;;;;;;;5106074;28;43165;-72
2023/10/01 05:15:56;;;;;;;2.70;2.25;;;;;;;;;;5108108;28;41631;-72
2023/10/01 05:18:26;;;;;;;2.83;2.40;;;;;;;;;;5108497;28;42736;-72
2023/10/01 05:20:58;;;;;;;4.00;2.72;;;;;;;;;;5108217;28;42384;-72
2023/10/01 05:23:26;;;;;;;3.53;3.20;;;;;;;;;;5107394;28;41844;-72
2023/10/01 05:25:56;;;;;;;4.10;2.80;;;;;;;;;;5108548;28;42396;-72
2023/10/01 05:28:31;;;;;;;2.95;1.92;;;;;;;;;;5107898;28;41895;-72
2023/10/01 05:31:05;;;;;;;2.95;2.65;;;;;;;;;;5104721;28;42611;-72
2023/10/01 05:33:33;;;;;;;2.92;2.10;;;;;;;;;;5098600;28;43062;-72
2023/10/01 05:36:04;;;;;;;3.95;2.58;;;;;;;;;;5097022;28;42239;-72
2023/10/01 05:38:34;;;;;;;2.92;2.03;;;;;;;;;;5107434;28;41296;-72
2023/10/01 05:41:03;;;;;;;2.75;2.20;;;;;;;;;;5096130;28;41936;-72
2023/10/01 05:43:35;;;;;;;3.22;2.35;;;;;;;;;;5103958;28;42132;-72
2023/10/01 05:46:08;;;;;;;4.82;3.30;;;;;;;;;;5104173;28;41604;-72
2023/10/01 05:48:37;;;;;;;3.28;2.75;;;;;;;;;;5105469;28;41582;-72
2023/10/01 05:51:06;;;;;;;4.07;3.15;;;;;;;;;;5106915;28;41354;-72
2023/10/01 05:53:36;;;;;;;2.67;2.17;;;;;;;;;;5108101;28;42470;-72
2023/10/01 05:56:04;;;;;;;3.38;2.80;;;;;;;;;;5108222;28;41298;-72
2023/10/01 05:58:32;;;;;;;3.60;2.75;;;;;;;;;;5099964;28;42653;-72
2023/10/01 06:01:13;;;;;;;3.45;2.85;;;;;;;;;;5107669;28;43305;-72
2023/10/01 06:03:43;;;;;;;3.67;2.90;;;;;;;;;;5097420;28;41349;-72
2023/10/01 06:06:13;;;;;;;3.72;2.75;;;;;;;;;;5107795;28;43334;-72
2023/10/01 06:08:50;;;;;;;4.88;3.33;;;;;;;;;;5104995;28;40762;-72
2023/10/01 06:11:18;;;;;;;4.45;2.90;;;;;;;;;;5086040;28;40722;-72
2023/10/01 06:13:53;;;;;;;3.70;2.80;;;;;;;;;;5106991;28;43134;-72
2023/10/01 06:16:23;;;;;;;3.45;2.50;;;;;;;;;;5104989;28;39871;-72
2023/10/01 06:18:56;;;;;;;3.97;2.95;;;;;;;;;;5104020;28;41415;-72
2023/10/01 06:21:25;;;;;;;3.80;2.83;;;;;;;;;;5102935;28;41592;-72
2023/10/01 06:23:58;;;;;;;3.78;2.83;;;;;;;;;;5106803;28;41799;-72
2023/10/01 06:26:33;;;;;;;8.32;2.83;;;;;;;;;;5104087;28;41467;-72
2023/10/01 06:29:02;;;;;;;5.80;3.67;;;;;;;;;;5103610;28;42436;-72
2023/10/01 06:31:47;;;;;;;4.95;2.70;;;;;;;;;;5107098;28;41069;-71
2023/10/01 06:34:21;;;;;;;7.90;3.40;;;;;;;;;;5103697;28;42138;-70
2023/10/01 06:36:51;;;;;;;9.68;4.40;;;;;;;;;;5103048;28;41023;-70
2023/10/01 06:39:20;;;;;;;34.42;6.95;;;;;;;;;;5105889;28;41786;-71
2023/10/01 06:41:49;;;;;;;12.48;6.85;;;;;;;;;;5105130;28;43275;-71
2023/10/01 06:44:17;;;;;;;14.90;6.78;;;;;;;;;;5106887;28;41864;-71
2023/10/01 06:46:48;;;;;;;14.88;6.70;;;;;;;;;;5105879;28;41327;-72
2023/10/01 06:49:19;;;;;;;12.75;7.10;;;;;;;;;;5107204;27;41790;-72
2023/10/01 06:51:47;;;;;;;17.50;6.90;;;;;;;;;;5082955;28;41102;-72
2023/10/01 06:54:19;;;;;;;14.13;6.70;;;;;;;;;;5107673;28;41421;-72
2023/10/01 06:56:47;;;;;;;16.80;6.88;;;;;;;;;;5110025;28;41129;-72
2023/10/01 06:59:17;;;;;;;10.80;6.43;;;;;;;;;;5092052;28;41157;-72
2023/10/01 07:01:49;;;;;;;12.48;7.07;;;;;;;;;;5109536;28;42605;-72
2023/10/01 07:04:20;;;;;;;13.52;7.05;;;;;;;;;;5106976;28;41177;-72
2023/10/01 07:06:50;;;;;;;12.57;7.40;;;;;;;;;;5109419;28;41818;-72
2023/10/01 07:09:34;;;;;;;11.00;6.35;;;;;;;;;;5107151;28;41299;-72
2023/10/01 07:12:03;;;;;;;11.35;6.95;;;;;;;;;;5107113;28;41525;-71
2023/10/01 07:14:31;;;;;;;20.67;8.10;;;;;;;;;;5109165;28;41032;-72
2023/10/01 07:17:00;;;;;;;689.42;52.10;;;;;;;;;;5108893;28;43213;-72
2023/10/01 07:19:30;;;;;;;770.22;55.38;;;;;;;;;;5109686;28;41808;-72
2023/10/01 07:21:58;;;;;;;323.40;23.73;;;;;;;;;;5109152;28;42354;-72
2023/10/01 07:24:28;;;;;;;150.15;16.48;;;;;;;;;;5109205;28;41793;-71
2023/10/01 07:27:03;;;;;;;141.82;12.98;;;;;;;;;;5109753;28;42723;-68
2023/10/01 07:29:34;;;;;;;81.65;11.73;;;;;;;;;;5105957;28;42759;-68
2023/10/01 07:32:04;;;;;;;88.45;10.55;;;;;;;;;;5109134;28;43140;-68
2023/10/01 07:34:35;;;;;;;51.88;8.98;;;;;;;;;;5109287;28;41942;-69
2023/10/01 07:37:04;;;;;;;59.70;9.23;;;;;;;;;;5104094;27;43186;-68
2023/10/01 07:39:34;;;;;;;47.20;8.43;;;;;;;;;;5105815;27;41381;-68
2023/10/01 07:42:04;;;;;;;35.70;9.27;;;;;;;;;;5104623;28;41371;-69
2023/10/01 07:44:33;;;;;;;27.00;8.30;;;;;;;;;;5107999;28;41838;-69
2023/10/01 07:47:03;;;;;;;28.52;8.82;;;;;;;;;;5102345;28;41305;-69
2023/10/01 07:49:46;;;;;;;15.40;7.75;;;;;;;;;;5105390;28;43887;-67
2023/10/01 07:52:18;;;;;;;22.20;7.85;;;;;;;;;;5105781;28;41946;-68
2023/10/01 07:54:48;;;;;;;22.80;7.63;;;;;;;;;;5107671;28;41732;-68
2023/10/01 07:57:17;;;;;;;23.50;8.02;;;;;;;;;;5108666;28;41847;-68
2023/10/01 07:59:46;;;;;;;20.85;8.38;;;;;;;;;;5107554;28;42376;-68
2023/10/01 08:02:22;;;;;;;31.17;7.95;;;;;;;;;;5109714;27;41042;-68
2023/10/01 08:04:58;;;;;;;19.17;8.27;;;;;;;;;;5108750;28;41688;-68
2023/10/01 08:07:30;;;;;;;22.30;8.40;;;;;;;;;;5106151;28;41554;-68
2023/10/01 08:09:59;;;;;;;14.98;7.28;;;;;;;;;;5105647;28;42450;-68
2023/10/01 08:12:33;;;;;;;20.58;7.93;;;;;;;;;;5108298;28;42791;-68
2023/10/01 08:17:54;;;;;;;18.05;7.50;;;;;;;;;;5088182;27;43430;-67
2023/10/01 08:20:21;;;;;;;40.85;9.48;;;;;;;;;;5106783;27;42598;-68
2023/10/01 08:25:33;;;;;;;39.97;8.98;;;;;;;;;;5108155;28;42904;-67
2023/10/01 08:28:08;;;;;;;35.85;9.50;;;;;;;;;;5107674;27;42237;-67
2023/10/01 08:30:39;;;;;;;36.35;8.48;;;;;;;;;;5104596;27;41995;-67
2023/10/01 08:33:18;;;;;;;23.77;8.13;;;;;;;;;;5105362;28;42390;-67
2023/10/01 08:35:56;;;;;;;18.17;7.70;;;;;;;;;;5104403;27;42404;-66
2023/10/01 08:38:29;;;;;;;20.13;7.80;;;;;;;;;;5105168;27;42519;-67
2023/10/01 08:41:00;;;;;;;31.98;8.40;;;;;;;;;;5102055;27;41085;-71
2023/10/01 08:43:29;;;;;;;29.77;8.88;;;;;;;;;;5104101;27;41214;-66
2023/10/01 08:45:57;;;;;;;43.28;8.95;;;;;;;;;;5101798;27;41992;-67
2023/10/01 08:48:35;;;;;;;31.52;8.43;;;;;;;;;;5104719;27;41295;-67
2023/10/01 08:51:11;;;;;;;27.80;8.50;;;;;;;;;;5106285;28;42445;-67
2023/10/01 08:53:41;;;;;;;38.17;8.43;;;;;;;;;;5106965;28;41267;-66
2023/10/01 08:56:13;;;;;;;32.63;8.27;;;;;;;;;;5099049;28;43009;-67
2023/10/01 08:58:49;;;;;;;37.50;8.60;;;;;;;;;;5104168;28;42163;-67
2023/10/01 09:01:20;;;;;;;31.15;8.18;;;;;;;;;;5103290;28;42060;-67
2023/10/01 09:03:55;;;;;;;32.67;8.77;;;;;;;;;;5105214;28;42124;-67
2023/10/01 09:06:27;;;;;;;22.23;7.80;;;;;;;;;;5104042;28;42068;-67
2023/10/01 09:09:19;;;;;;;29.17;8.77;;;;;;;;;;5101327;28;41787;-67
2023/10/01 09:11:50;;;;;;;29.80;7.13;;;;;;;;;;5103898;28;43124;-67
2023/10/01 09:14:20;;;;;;;30.80;7.55;;;;;;;;;;5106834;27;41931;-66
2023/10/01 09:16:57;;;;;;;19.17;6.38;;;;;;;;;;5107341;28;41767;-66
2023/10/01 09:19:34;;;;;;;19.35;5.97;;;;;;;;;;5104440;28;43173;-66
2023/10/01 09:22:08;;;;;;;19.98;8.32;;;;;;;;;;5105124;28;42252;-67
2023/10/01 09:24:39;;;;;;;19.00;7.85;;;;;;;;;;5106928;28;41201;-67
2023/10/01 09:27:18;;;;;;;25.38;7.68;;;;;;;;;;5106493;28;41848;-67
2023/10/01 09:29:48;;;;;;;21.88;7.18;;;;;;;;;;5103765;28;41814;-66
2023/10/01 09:32:19;;;;;;;25.60;9.18;;;;;;;;;;5111289;27;41724;-66
2023/10/01 09:34:56;;;;;;;21.02;8.85;;;;;;;;;;5103643;28;42057;-66
2023/10/01 09:37:34;;;;;;;16.42;6.97;;;;;;;;;;5121683;27;42497;-66
2023/10/01 09:40:13;;;;;;;16.23;7.05;;;;;;;;;;5103858;28;42884;-66
2023/10/01 09:42:45;;;;;;;15.15;6.95;;;;;;;;;;5104078;28;41329;-67
2023/10/01 09:45:26;;;;;;;18.40;8.35;;;;;;;;;;5104280;28;41785;-66
2023/10/01 09:48:03;;;;;;;18.05;8.63;;;;;;;;;;5107016;28;42764;-66
2023/10/01 09:50:39;;;;;;;21.27;8.13;;;;;;;;;;5106393;28;42087;-66
2023/10/01 09:53:12;;;;;;;25.65;6.53;;;;;;;;;;5104613;28;42635;-67
2023/10/01 09:55:48;;;;;;;16.30;6.60;;;;;;;;;;5104195;28;42316;-66
2023/10/01 09:58:24;;;;;;;21.58;6.35;;;;;;;;;;5087886;28;40388;-67
2023/10/01 10:00:53;;;;;;;16.35;7.55;;;;;;;;;;5104017;28;42722;-67
2023/10/01 10:03:21;;;;;;;18.05;6.03;;;;;;;;;;5107106;28;41777;-67
2023/10/01 10:05:49;;;;;;;18.25;9.57;;;;;;;;;;5111845;27;41936;-67
2023/10/01 10:08:20;;;;;;;15.75;8.20;;;;;;;;;;5116492;27;43100;-67
2023/10/01 10:10:52;;;;;;;18.67;7.75;;;;;;;;;;5105675;28;42703;-67
2023/10/01 10:13:36;;;;;;;19.00;8.30;;;;;;;;;;5104003;28;42844;-67
2023/10/01 10:16:30;;;;;;;20.05;5.82;;;;;;;;;;5102455;28;42108;-66
2023/10/01 10:19:20;;;;;;;13.52;7.38;;;;;;;;;;5105824;28;41010;-66
2023/10/01 10:22:05;;;;;;;14.07;7.10;;;;;;;;;;5095455;28;42185;-66
2023/10/01 10:24:34;;;;;;;15.90;8.80;;;;;;;;;;5105168;28;42093;-67
2023/10/01 10:27:07;;;;;;;14.00;5.38;;;;;;;;;;5106787;28;41762;-67
2023/10/01 10:29:57;;;;;;;14.68;7.05;;;;;;;;;;5106106;28;42185;-67
2023/10/01 10:32:26;;;;;;;16.75;7.90;;;;;;;;;;5095172;28;40026;-67
2023/10/01 10:35:14;;;;;;;11.77;7.30;;;;;;;;;;5110360;28;42399;-67
2023/10/01 10:37:48;;;;;;;17.70;7.75;;;;;;;;;;5100449;28;41192;-67
2023/10/01 10:40:26;;;;;;;21.77;7.97;;;;;;;;;;5102274;28;40534;-66
2023/10/01 10:43:21;;;;;;;20.45;7.63;;;;;;;;;;5107303;28;42091;-66
2023/10/01 10:46:01;;;;;;;21.85;7.50;;;;;;;;;;5102813;28;42545;-66
2023/10/01 10:48:49;;;;;;;15.07;6.82;;;;;;;;;;5111747;27;41732;-67
2023/10/01 10:51:43;;;;;;;18.35;6.72;;;;;;;;;;5108947;28;42070;-67
2023/10/01 10:54:16;;;;;;;17.35;7.30;;;;;;;;;;5109939;28;41156;-66
2023/10/01 10:56:44;;;;;;;19.85;7.50;;;;;;;;;;5107217;28;41776;-66
2023/10/01 10:59:15;;;;;;;15.98;6.38;;;;;;;;;;5091449;28;41030;-66
2023/10/01 11:01:47;;;;;;;15.68;6.70;;;;;;;;;;5095206;28;42328;-67
2023/10/01 11:04:16;;;;;;;18.70;8.43;;;;;;;;;;5106005;28;41574;-67
2023/10/01 11:07:01;;;;;;;20.20;8.63;;;;;;;;;;5105748;27;33681;-67
2023/10/01 11:09:32;;;;;;;28.00;13.25;;;;;;;;;;5108662;27;41076;-67
2023/10/01 11:12:05;;;;;;;39.22;11.18;;;;;;;;;;5108681;27;42808;-66
2023/10/01 11:14:35;;;;;;;43.95;12.00;;;;;;;;;;5103701;27;42509;-67
2023/10/01 11:17:03;;;;;;;38.28;9.73;;;;;;;;;;5106748;27;41806;-67
2023/10/01 11:19:35;;;;;;;21.23;8.10;;;;;;;;;;5108340;27;42243;-69
2023/10/01 11:22:04;;;;;;;27.65;8.65;;;;;;;;;;5100719;27;41308;-67
2023/10/01 11:24:32;;;;;;;34.28;9.02;;;;;;;;;;5107145;27;41677;-66
2023/10/01 11:27:11;;;;;;;25.23;8.45;;;;;;;;;;5107498;27;42081;-67
2023/10/01 11:29:40;;;;;;;14.35;7.28;;;;;;;;;;5104187;27;42168;-67
2023/10/01 11:32:16;;;;;;;20.33;7.70;;;;;;;;;;5109996;28;42639;-67
2023/10/01 11:34:45;;;;;;;20.60;7.47;;;;;;;;;;5094986;28;41971;-68
2023/10/01 11:37:17;;;;;;;41.85;7.32;;;;;;;;;;5106901;27;41586;-67
2023/10/01 11:39:50;;;;;;;22.45;7.20;;;;;;;;;;5108388;28;43206;-67
2023/10/01 11:42:27;;;;;;;30.95;8.05;;;;;;;;;;5106470;28;40801;-68
2023/10/01 11:44:56;;;;;;;21.00;7.35;;;;;;;;;;5090631;28;40854;-67
2023/10/01 11:50:09;;;;;;;16.25;7.50;;;;;;;;;;5106915;28;42347;-67
2023/10/01 11:52:42;;;;;;;17.45;7.75;;;;;;;;;;5108872;28;42109;-67
2023/10/01 11:55:19;;;;;;;18.50;7.72;;;;;;;;;;5109823;28;41020;-68
2023/10/01 11:57:52;;;;;;;19.77;8.00;;;;;;;;;;5101813;28;41629;-67
2023/10/01 12:00:52;;;;;;;20.95;7.25;;;;;;;;;;5091228;28;40117;-68
2023/10/01 12:03:20;;;;;;;20.83;7.00;;;;;;;;;;5103425;28;40858;-68
2023/10/01 12:05:48;;;;;;;25.77;7.47;;;;;;;;;;5104233;28;42250;-67
2023/10/01 12:08:18;;;;;;;15.57;7.10;;;;;;;;;;5112792;27;43182;-67
2023/10/01 12:10:51;;;;;;;17.02;7.93;;;;;;;;;;5107681;27;41351;-68
2023/10/01 12:13:21;;;;;;;18.15;6.60;;;;;;;;;;5107931;28;42019;-67
2023/10/01 12:15:52;;;;;;;18.50;6.35;;;;;;;;;;5105028;28;42121;-68
2023/10/01 12:18:20;;;;;;;19.65;7.35;;;;;;;;;;5089331;28;40981;-67
2023/10/01 12:20:54;;;;;;;16.30;8.15;;;;;;;;;;5107979;28;43307;-67
2023/10/01 12:23:22;;;;;;;22.73;7.00;;;;;;;;;;5103928;28;41262;-68
2023/10/01 12:25:53;;;;;;;42.65;8.65;;;;;;;;;;5108283;27;42602;-68
2023/10/01 12:28:25;;;;;;;38.33;7.97;;;;;;;;;;5108176;28;41815;-68
2023/10/01 12:31:02;;;;;;;38.47;7.88;;;;;;;;;;5104217;28;42353;-67
2023/10/01 12:33:38;;;;;;;35.47;8.55;;;;;;;;;;5090042;28;40889;-67
2023/10/01 12:36:11;;;;;;;26.13;7.65;;;;;;;;;;5105697;28;42084;-67
2023/10/01 12:38:38;;;;;;;24.27;8.73;;;;;;;;;;5103709;28;41372;-67
2023/10/01 12:41:06;;;;;;;32.97;8.60;;;;;;;;;;5104833;28;43276;-67
2023/10/01 12:43:36;;;;;;;21.00;7.45;;;;;;;;;;5107487;27;40931;-68
2023/10/01 12:46:09;;;;;;;32.85;8.32;;;;;;;;;;5104085;28;41681;-68
2023/10/01 12:48:37;;;;;;;27.83;7.47;;;;;;;;;;5103819;28;41874;-69
2023/10/01 12:51:07;;;;;;;28.02;8.43;;;;;;;;;;5108285;28;41844;-68
2023/10/01 12:53:35;;;;;;;22.35;6.93;;;;;;;;;;5107518;28;42802;-69
2023/10/01 12:56:03;;;;;;;27.38;7.47;;;;;;;;;;5108086;28;42007;-69
2023/10/01 12:58:35;;;;;;;24.33;6.88;;;;;;;;;;5109191;28;41870;-69
2023/10/01 13:01:03;;;;;;;42.95;7.70;;;;;;;;;;5103635;28;42783;-69
2023/10/01 13:03:35;;;;;;;20.80;7.97;;;;;;;;;;5108495;28;41443;-69
2023/10/01 13:06:12;;;;;;;22.33;7.75;;;;;;;;;;5102828;28;41735;-69
2023/10/01 13:08:41;;;;;;;19.92;7.45;;;;;;;;;;5104960;28;41994;-68
2023/10/01 13:11:42;;;;;;;35.63;8.10;;;;;;;;;;5104415;28;41412;-68
2023/10/01 13:14:16;;;;;;;24.02;7.97;;;;;;;;;;5106180;28;42158;-67
2023/10/01 13:16:56;;;;;;;22.55;7.10;;;;;;;;;;5100357;27;40757;-68
2023/10/01 13:19:33;;;;;;;29.92;7.65;;;;;;;;;;5104125;28;41618;-67
2023/10/01 13:22:04;;;;;;;24.73;7.18;;;;;;;;;;5088842;28;42382;-68
2023/10/01 13:24:32;;;;;;;25.80;7.30;;;;;;;;;;5106511;28;42313;-68
2023/10/01 13:27:10;;;;;;;22.95;7.47;;;;;;;;;;5107998;28;42956;-68
2023/10/01 13:29:38;;;;;;;23.58;7.60;;;;;;;;;;5104667;28;42860;-68
2023/10/01 13:32:15;;;;;;;18.45;7.15;;;;;;;;;;5107910;28;41193;-67
2023/10/01 13:34:49;;;;;;;23.65;6.97;;;;;;;;;;5106002;27;41856;-68
2023/10/01 13:40:14;;;;;;;19.30;7.15;;;;;;;;;;5106528;28;41261;-69
2023/10/01 14:10:38;;;;;;;13.77;5.95;;;;;;;;;;5100916;28;41874;-69
2023/10/01 14:13:07;;;;;;;20.05;6.25;;;;;;;;;;5102441;28;42165;-69
2023/10/01 14:15:35;;;;;;;25.65;6.80;;;;;;;;;;5105369;28;41281;-67
2023/10/01 14:18:08;;;;;;;29.73;6.38;;;;;;;;;;5106905;28;42602;-69
2023/10/01 14:20:48;;;;;;;15.32;6.32;;;;;;;;;;5103635;28;42112;-67
2023/10/01 14:23:39;;;;;;;21.10;6.18;;;;;;;;;;5103603;28;41893;-66
2023/10/01 14:26:12;;;;;;;14.32;5.55;;;;;;;;;;5102777;28;42899;-67
2023/10/01 14:28:45;;;;;;;22.02;5.93;;;;;;;;;;5106874;28;41983;-66
2023/10/01 14:31:14;;;;;;;13.85;6.05;;;;;;;;;;5104528;28;42263;-67
2023/10/01 14:33:42;;;;;;;21.15;5.90;;;;;;;;;;5107589;28;42837;-67
2023/10/01 14:36:14;;;;;;;13.25;5.95;;;;;;;;;;5107950;28;40820;-68
2023/10/01 14:38:43;;;;;;;19.13;6.28;;;;;;;;;;5104224;28;42287;-67
2023/10/01 14:41:15;;;;;;;13.05;5.53;;;;;;;;;;5088624;28;41191;-67
2023/10/01 14:43:51;;;;;;;15.63;5.60;;;;;;;;;;5104303;28;41492;-67
2023/10/01 14:46:20;;;;;;;16.13;5.88;;;;;;;;;;5104413;28;41168;-67
2023/10/01 14:48:48;;;;;;;22.10;6.72;;;;;;;;;;5107197;28;41630;-67
2023/10/01 14:51:19;;;;;;;14.18;6.18;;;;;;;;;;5106960;28;41242;-68
2023/10/01 14:53:54;;;;;;;14.88;5.20;;;;;;;;;;5103256;28;41679;-67
2023/10/01 14:56:22;;;;;;;36.05;6.55;;;;;;;;;;5107217;28;42387;-67
2023/10/01 14:58:51;;;;;;;15.98;6.85;;;;;;;;;;5106858;28;41421;-67
2023/10/01 15:01:19;;;;;;;15.38;6.00;;;;;;;;;;5107293;28;43123;-67
2023/10/01 15:03:53;;;;;;;12.45;5.45;;;;;;;;;;5106999;28;41492;-67
2023/10/01 15:06:22;;;;;;;12.65;5.70;;;;;;;;;;5104003;28;41445;-67
2023/10/01 15:08:58;;;;;;;13.95;6.32;;;;;;;;;;5106807;28;41895;-68
2023/10/01 15:11:30;;;;;;;13.25;5.40;;;;;;;;;;5107640;27;41925;-67
2023/10/01 15:14:11;;;;;;;17.10;6.55;;;;;;;;;;5107185;28;41626;-67
2023/10/01 15:16:40;;;;;;;11.57;6.13;;;;;;;;;;5110148;28;42259;-70
2023/10/01 15:19:30;;;;;;;11.73;5.60;;;;;;;;;;5107562;28;41696;-68
2023/10/01 15:22:03;;;;;;;9.65;5.80;;;;;;;;;;5109706;28;41610;-69
2023/10/01 15:24:35;;;;;;;25.38;6.72;;;;;;;;;;5109707;28;41429;-68
2023/10/01 15:27:04;;;;;;;12.73;6.65;;;;;;;;;;5107160;28;41531;-68
2023/10/01 15:29:32;;;;;;;16.30;7.10;;;;;;;;;;5108604;28;42162;-67
2023/10/01 15:32:00;;;;;;;21.40;7.35;;;;;;;;;;5109729;28;41521;-67
2023/10/01 15:34:38;;;;;;;26.60;7.80;;;;;;;;;;5109424;28;42330;-68
2023/10/01 15:37:11;;;;;;;13.90;6.57;;;;;;;;;;5109863;28;43103;-67
2023/10/01 15:39:41;;;;;;;13.82;7.07;;;;;;;;;;5109490;28;41711;-68
2023/10/01 15:42:11;;;;;;;12.52;6.93;;;;;;;;;;5109058;28;42775;-67
2023/10/01 15:44:46;;;;;;;17.00;7.18;;;;;;;;;;5110102;28;41574;-67
2023/10/01 15:47:25;;;;;;;14.52;7.13;;;;;;;;;;5108421;28;42777;-68
2023/10/01 15:49:56;;;;;;;10.23;6.63;;;;;;;;;;5106608;28;42774;-67
2023/10/01 15:52:25;;;;;;;15.55;8.15;;;;;;;;;;5107273;28;40932;-69